Time;durP1;ratioP1;P1;durP2;ratioP2;P2;SDS_P1;SDS_P2;PMS_P1;PMS_P2;Temp;Humidity;BMP_temperature;BMP_pressure;BME280_temperature;BME280_humidity;BME280_pressure;Samples;Min_cycle;Max_cycle;Signal;HPM_P1;HPM_P2
2022/05/18 00:00:37;;;;;;;11.35;4.85;;;;;;;14.97;82.29;99795.13;5002781;28;20030;-55
2022/05/18 00:03:07;;;;;;;7.65;3.70;;;;;;;14.78;83.34;99792.81;5006344;28;20034;-57
2022/05/18 00:05:34;;;;;;;11.05;4.35;;;;;;;14.84;82.94;99791.78;5006649;28;20451;-56
2022/05/18 00:08:00;;;;;;;7.28;4.35;;;;;;;14.88;82.41;99789.41;5007650;28;20415;-58
2022/05/18 00:10:26;;;;;;;8.23;4.20;;;;;;;14.85;82.91;99798.00;5005878;28;20461;-56
2022/05/18 00:12:51;;;;;;;9.82;4.40;;;;;;;14.80;82.94;99796.09;5005889;28;20033;-57
2022/05/18 00:15:18;;;;;;;11.77;4.50;;;;;;;14.80;82.68;99804.19;5005851;28;20018;-58
2022/05/18 00:17:44;;;;;;;8.63;4.50;;;;;;;14.75;82.40;99797.91;4987632;28;20566;-56
2022/05/18 00:20:10;;;;;;;6.45;4.13;;;;;;;14.66;82.81;99800.25;5005018;28;20026;-58
2022/05/18 00:23:05;;;;;;;8.95;4.20;;;;;;;14.45;84.52;99799.19;5002025;28;20033;-58
2022/05/18 00:25:33;;;;;;;10.65;5.13;;;;;;;14.32;84.65;99800.41;4984678;28;20802;-58
2022/05/18 00:27:59;;;;;;;7.72;4.60;;;;;;;14.49;84.82;99804.91;5004669;28;20018;-57
2022/05/18 00:30:25;;;;;;;13.13;5.20;;;;;;;14.86;82.61;99805.03;5005672;28;20124;-58
2022/05/18 00:32:51;;;;;;;9.07;5.28;;;;;;;14.91;82.82;99802.38;5006352;28;20060;-58
2022/05/18 00:35:17;;;;;;;11.68;5.90;;;;;;;14.94;81.92;99792.94;5005610;28;20546;-58
2022/05/18 00:37:42;;;;;;;10.00;5.30;;;;;;;14.86;83.23;99795.03;4988275;28;20034;-58
2022/05/18 00:40:09;;;;;;;9.65;5.68;;;;;;;14.85;82.80;99804.22;5005603;28;20026;-58
2022/05/18 00:42:35;;;;;;;11.90;5.53;;;;;;;14.71;83.03;99799.50;5004955;28;20561;-57
2022/05/18 00:45:00;;;;;;;7.75;4.35;;;;;;;14.46;82.73;99809.75;5004058;28;20034;-57
2022/05/18 00:47:26;;;;;;;10.90;4.38;;;;;;;14.41;82.90;99814.28;5006198;28;20089;-57
2022/05/18 00:49:55;;;;;;;9.50;4.70;;;;;;;14.33;85.30;99812.84;5005131;28;20475;-57
2022/05/18 00:52:23;;;;;;;7.03;4.60;;;;;;;14.21;84.69;99812.16;5005297;28;20029;-57
2022/05/18 00:54:49;;;;;;;10.23;5.75;;;;;;;14.04;86.77;99809.53;4988965;28;20060;-57
2022/05/18 00:57:17;;;;;;;12.23;5.90;;;;;;;14.02;88.13;99809.78;4988811;28;20041;-57
2022/05/18 00:59:43;;;;;;;11.10;5.90;;;;;;;14.20;88.08;99814.06;4987229;28;20053;-56
2022/05/18 01:02:09;;;;;;;11.40;6.22;;;;;;;14.32;87.32;99813.09;4971422;28;20293;-56
2022/05/18 01:04:37;;;;;;;12.25;5.80;;;;;;;14.43;86.96;99821.03;5005935;28;20112;-56
2022/05/18 01:07:10;;;;;;;11.45;5.70;;;;;;;14.39;86.85;99817.22;4987075;28;20488;-57
2022/05/18 01:09:39;;;;;;;9.65;5.40;;;;;;;14.30;87.09;99817.91;4983059;28;20388;-57
2022/05/18 01:12:05;;;;;;;9.43;5.88;;;;;;;14.20;88.10;99814.06;5005263;28;20120;-58
2022/05/18 01:14:45;;;;;;;9.15;5.22;;;;;;;14.35;87.51;99810.72;5004116;28;20042;-58
2022/05/18 01:17:12;;;;;;;10.73;6.03;;;;;;;14.44;87.44;99809.19;5004633;28;20036;-58
2022/05/18 01:19:40;;;;;;;9.48;5.50;;;;;;;14.39;87.03;99814.53;4986437;28;20451;-58
2022/05/18 01:22:20;;;;;;;10.68;5.70;;;;;;;14.37;87.15;99816.66;4985834;28;20393;-56
2022/05/18 01:25:08;;;;;;;10.75;5.50;;;;;;;14.29;87.53;99827.88;5004157;28;20033;-56
2022/05/18 01:27:34;;;;;;;12.43;5.90;;;;;;;14.29;87.21;99822.50;4984946;28;20453;-57
2022/05/18 01:30:00;;;;;;;10.13;5.32;;;;;;;14.31;87.21;99828.47;4991286;28;20029;-55
2022/05/18 01:32:25;;;;;;;11.88;5.75;;;;;;;14.22;87.57;99832.66;5010382;28;20324;-56
2022/05/18 01:34:51;;;;;;;12.90;5.50;;;;;;;14.27;86.65;99832.72;4965348;28;20488;-59
2022/05/18 01:37:17;;;;;;;12.52;5.53;;;;;;;14.53;86.92;99833.03;5003481;28;20037;-58
2022/05/18 01:39:50;;;;;;;9.82;5.32;;;;;;;14.45;86.88;99836.97;5009208;28;20612;-57
2022/05/18 01:42:33;;;;;;;12.65;5.68;;;;;;;14.30;86.13;99832.19;5005202;28;20037;-57
2022/05/18 01:44:59;;;;;;;10.50;6.05;;;;;;;14.36;85.75;99828.50;5007344;28;20037;-58
2022/05/18 01:47:24;;;;;;;11.32;6.32;;;;;;;14.38;85.87;99831.78;5008829;28;20424;-56
2022/05/18 01:49:51;;;;;;;12.68;6.35;;;;;;;14.46;85.27;99823.22;5010067;28;20120;-57
2022/05/18 01:52:17;;;;;;;13.25;6.40;;;;;;;14.56;85.15;99821.75;5002500;28;20520;-58
2022/05/18 01:54:45;;;;;;;12.13;6.20;;;;;;;14.68;84.95;99817.03;5007987;28;20041;-57
2022/05/18 01:57:11;;;;;;;13.30;6.43;;;;;;;14.76;84.01;99819.25;5009069;28;20041;-58
2022/05/18 01:59:37;;;;;;;10.02;5.60;;;;;;;14.52;84.07;99820.59;5007559;28;20045;-57
2022/05/18 02:02:04;;;;;;;8.68;5.63;;;;;;;14.40;84.71;99823.41;5005820;28;20437;-58
2022/05/18 02:04:32;;;;;;;8.30;4.88;;;;;;;14.20;85.19;99821.31;4988850;28;20054;-57
2022/05/18 02:06:59;;;;;;;7.93;5.05;;;;;;;14.03;84.50;99827.59;5008423;28;20049;-61
2022/05/18 02:09:25;;;;;;;7.72;5.03;;;;;;;13.95;84.97;99828.03;5008576;28;20075;-58
2022/05/18 02:11:51;;;;;;;11.48;5.03;;;;;;;13.72;85.53;99829.06;5009289;28;20029;-57
2022/05/18 02:14:17;;;;;;;9.85;5.60;;;;;;;13.76;86.52;99837.47;5007847;28;20534;-57
2022/05/18 02:16:43;;;;;;;8.95;5.43;;;;;;;13.73;86.49;99846.06;5009206;28;20176;-57
2022/05/18 02:19:08;;;;;;;16.27;5.90;;;;;;;13.72;86.65;99836.31;5009809;28;20125;-55
2022/05/18 02:21:34;;;;;;;9.82;6.13;;;;;;;13.84;86.57;99839.72;5009452;28;20116;-57
2022/05/18 02:23:59;;;;;;;10.68;6.47;;;;;;;13.82;86.62;99847.25;5008303;28;20117;-57
2022/05/18 02:26:25;;;;;;;14.90;6.63;;;;;;;13.74;87.00;99847.69;4974357;28;20069;-57
2022/05/18 02:28:51;;;;;;;9.55;6.05;;;;;;;13.63;88.62;99840.50;5007352;28;20566;-57
2022/05/18 02:31:16;;;;;;;12.73;6.30;;;;;;;13.76;88.75;99840.16;5007733;28;20112;-56
2022/05/18 02:33:42;;;;;;;13.32;6.70;;;;;;;14.06;88.13;99845.16;4990145;28;20117;-56
2022/05/18 02:36:08;;;;;;;9.93;6.47;;;;;;;14.17;87.31;99835.28;5007791;28;20168;-57
2022/05/18 02:38:34;;;;;;;13.90;7.10;;;;;;;14.16;87.27;99834.47;5007303;28;20476;-56
2022/05/18 02:41:00;;;;;;;20.30;6.88;;;;;;;14.16;86.87;99849.84;5008318;28;20112;-56
2022/05/18 02:43:26;;;;;;;14.70;7.22;;;;;;;14.12;87.70;99841.44;5007549;28;20137;-56
2022/05/18 02:46:05;;;;;;;10.90;6.43;;;;;;;13.95;87.04;99833.44;5006831;28;20073;-55
2022/05/18 02:48:31;;;;;;;12.35;7.65;;;;;;;14.12;87.84;99824.44;5004752;28;20025;-56
2022/05/18 02:50:57;;;;;;;28.33;8.65;;;;;;;14.17;87.16;99822.63;5007696;28;20014;-56
2022/05/18 02:53:22;;;;;;;12.25;5.55;;;;;;;13.85;85.76;99833.25;5006588;28;20021;-56
2022/05/18 02:56:06;;;;;;;9.48;5.90;;;;;;;13.53;86.66;99825.84;5008151;28;20029;-57
2022/05/18 02:58:36;;;;;;;12.15;6.18;;;;;;;13.29;88.36;99830.59;5003607;28;20022;-56
2022/05/18 03:01:10;;;;;;;9.05;6.05;;;;;;;13.14;89.03;99830.31;5007619;28;20022;-56
2022/05/18 03:03:35;;;;;;;9.88;5.50;;;;;;;13.08;90.46;99824.03;5007604;28;20316;-56
2022/05/18 03:06:03;;;;;;;8.95;6.05;;;;;;;12.96;91.15;99820.63;5006821;28;20693;-57
2022/05/18 03:08:30;;;;;;;13.20;7.03;;;;;;;13.06;91.66;99828.84;4990088;28;20113;-56
2022/05/18 03:10:55;;;;;;;15.82;7.38;;;;;;;13.20;91.33;99820.44;4988131;28;20505;-56
2022/05/18 03:13:21;;;;;;;12.10;7.13;;;;;;;13.28;91.20;99823.59;5006179;28;20054;-56
2022/05/18 03:15:47;;;;;;;11.98;6.90;;;;;;;13.24;90.15;99824.28;5006876;28;20034;-56
2022/05/18 03:18:14;;;;;;;11.50;7.47;;;;;;;13.24;90.51;99829.66;5006800;28;20118;-57
2022/05/18 03:23:36;;;;;;;21.13;7.30;;;;;;;13.31;90.01;99833.03;5006392;28;20044;-57
2022/05/18 03:26:12;;;;;;;13.73;7.25;;;;;;;13.30;91.10;99840.28;5006478;28;20045;-56
2022/05/18 03:28:38;;;;;;;10.73;6.93;;;;;;;13.28;89.69;99845.13;5005413;28;20034;-56
2022/05/18 03:31:05;;;;;;;13.05;6.95;;;;;;;13.34;90.07;99864.84;5006082;28;20061;-56
2022/05/18 03:33:30;;;;;;;18.02;7.00;;;;;;;13.30;89.68;99848.34;5007016;28;20145;-56
2022/05/18 03:35:56;;;;;;;14.70;7.25;;;;;;;13.24;89.69;99860.09;5007101;28;20105;-56
2022/05/18 03:38:22;;;;;;;11.65;6.90;;;;;;;13.19;89.54;99860.00;5008054;28;20113;-56
2022/05/18 03:40:47;;;;;;;11.80;7.40;;;;;;;13.34;89.86;99870.22;4989223;28;20042;-57
2022/05/18 03:43:13;;;;;;;12.65;6.93;;;;;;;13.27;90.18;99865.00;5006340;28;20098;-56
2022/05/18 03:45:38;;;;;;;14.43;7.15;;;;;;;13.30;89.85;99861.00;5005590;28;20099;-56
2022/05/18 03:48:05;;;;;;;14.32;7.63;;;;;;;12.99;91.35;99871.25;4984349;28;20038;-56
2022/05/18 03:50:31;;;;;;;14.40;7.85;;;;;;;13.01;92.04;99866.44;5005912;28;20033;-57
2022/05/18 03:52:57;;;;;;;15.10;7.70;;;;;;;13.08;91.46;99859.03;5006244;28;20122;-56
2022/05/18 03:55:23;;;;;;;15.85;7.95;;;;;;;13.33;91.03;99872.13;5007044;28;20049;-57
2022/05/18 03:57:48;;;;;;;15.07;8.15;;;;;;;13.45;89.85;99876.59;4989015;28;20531;-57
2022/05/18 04:00:16;;;;;;;14.07;7.78;;;;;;;13.65;88.56;99882.28;4988867;28;20022;-58
2022/05/18 04:02:42;;;;;;;12.30;7.35;;;;;;;13.49;89.43;99883.94;5004899;28;20048;-57
2022/05/18 04:05:09;;;;;;;15.90;7.07;;;;;;;13.52;88.04;99879.94;5005313;28;20046;-57
2022/05/18 04:07:34;;;;;;;13.02;7.47;;;;;;;13.64;87.93;99872.59;5006557;28;20029;-56
2022/05/18 04:10:00;;;;;;;14.82;7.63;;;;;;;13.77;87.09;99866.03;5003298;28;20080;-56
2022/05/18 04:12:27;;;;;;;11.35;6.93;;;;;;;14.21;84.67;99866.09;5005850;28;20032;-56
2022/05/18 04:14:54;;;;;;;10.85;7.38;;;;;;;15.30;80.98;99862.38;5005473;28;20036;-56
2022/05/18 04:17:20;;;;;;;14.20;6.65;;;;;;;15.46;80.37;99866.00;5006586;28;20032;-58
2022/05/18 04:19:46;;;;;;;11.98;7.07;;;;;;;16.64;74.16;99869.31;4984620;28;20105;-58
2022/05/18 04:22:12;;;;;;;11.15;6.78;;;;;;;18.29;68.42;99868.97;5003539;28;20026;-58
2022/05/18 04:24:37;;;;;;;13.70;6.47;;;;;;;18.84;64.70;99868.16;5005653;28;20504;-55
2022/05/18 04:27:06;;;;;;;10.93;5.65;;;;;;;19.36;62.36;99875.66;5005786;28;20022;-56
2022/05/18 04:29:32;;;;;;;10.40;5.70;;;;;;;19.29;61.92;99879.78;5005549;28;20440;-56
2022/05/18 04:31:57;;;;;;;8.48;5.13;;;;;;;20.00;59.55;99879.16;5004550;28;20045;-55
2022/05/18 04:34:23;;;;;;;8.07;4.88;;;;;;;20.03;58.93;99880.47;5006805;28;20029;-56
2022/05/18 04:36:49;;;;;;;10.80;4.95;;;;;;;20.41;58.62;99881.38;4978987;28;20093;-56
2022/05/18 04:39:14;;;;;;;9.68;5.13;;;;;;;20.53;56.88;99885.59;5005338;28;20069;-56
2022/05/18 04:41:40;;;;;;;13.57;4.80;;;;;;;20.85;56.84;99885.72;5006236;28;20368;-57
2022/05/18 04:44:05;;;;;;;8.32;4.80;;;;;;;21.53;55.46;99892.56;5004919;28;20092;-56
2022/05/18 04:46:31;;;;;;;7.82;4.28;;;;;;;21.21;54.97;99887.88;4987706;28;20052;-56
2022/05/18 04:48:56;;;;;;;9.50;4.55;;;;;;;21.71;54.17;99893.59;5005842;28;20031;-55
2022/05/18 04:51:25;;;;;;;9.32;4.50;;;;;;;22.07;53.17;99894.88;5005539;28;20158;-56
2022/05/18 04:53:50;;;;;;;8.23;4.30;;;;;;;22.97;50.69;99906.97;4982411;28;20038;-56
2022/05/18 04:56:16;;;;;;;8.18;4.40;;;;;;;23.45;48.98;99905.53;5002521;28;20439;-56
2022/05/18 04:58:42;;;;;;;8.65;4.53;;;;;;;22.60;51.53;99913.50;5003210;28;20040;-56
2022/05/18 05:01:08;;;;;;;8.18;4.20;;;;;;;23.57;49.53;99915.94;4996811;28;20046;-56
2022/05/18 05:03:34;;;;;;;7.50;4.70;;;;;;;24.50;48.10;99917.84;5004815;28;20029;-56
2022/05/18 05:06:01;;;;;;;10.93;4.53;;;;;;;24.61;47.46;99919.16;5005230;28;20423;-56
2022/05/18 05:08:26;;;;;;;9.88;5.25;;;;;;;23.01;50.85;99916.19;5006103;28;20126;-56
2022/05/18 05:10:52;;;;;;;13.43;4.65;;;;;;;22.77;52.13;99926.53;5005433;28;20480;-56
2022/05/18 05:13:17;;;;;;;12.95;4.75;;;;;;;21.70;54.86;99919.28;5004711;28;20033;-56
2022/05/18 05:15:44;;;;;;;15.48;4.93;;;;;;;20.72;58.83;99927.31;5003946;28;20462;-56
2022/05/18 05:18:10;;;;;;;9.23;5.50;;;;;;;22.08;55.06;99930.06;4988099;28;20069;-56
2022/05/18 05:20:35;;;;;;;14.90;5.45;;;;;;;22.37;54.47;99932.53;5005627;28;20563;-56
2022/05/18 05:23:01;;;;;;;10.40;5.32;;;;;;;23.92;49.79;99940.78;5004434;28;20038;-56
2022/05/18 05:25:26;;;;;;;13.45;4.95;;;;;;;25.38;46.49;99930.50;5004734;28;20018;-56
2022/05/18 05:27:52;;;;;;;12.13;4.93;;;;;;;25.96;44.67;99929.13;4998947;28;20051;-56
2022/05/18 05:30:18;;;;;;;11.48;5.57;;;;;;;25.93;45.53;99929.75;5003638;28;20049;-56
2022/05/18 05:32:44;;;;;;;11.75;4.75;;;;;;;24.47;48.65;99932.97;5004672;28;20047;-57
2022/05/18 05:35:11;;;;;;;21.17;5.50;;;;;;;26.22;44.57;99926.25;5004362;28;20034;-57
2022/05/18 05:37:36;;;;;;;23.08;5.32;;;;;;;25.60;45.55;99932.25;4994470;28;20279;-57
2022/05/18 05:40:06;;;;;;;13.10;5.20;;;;;;;25.50;46.36;99938.09;4996391;28;20030;-57
2022/05/18 05:42:31;;;;;;;16.85;4.90;;;;;;;25.99;45.24;99939.44;5002361;28;20037;-57
2022/05/18 05:44:57;;;;;;;17.75;5.05;;;;;;;25.87;45.73;99939.31;5004845;28;20030;-57
2022/05/18 05:47:25;;;;;;;12.15;4.68;;;;;;;27.47;43.69;99941.28;5004655;28;20481;-57
2022/05/18 05:49:50;;;;;;;11.97;4.97;;;;;;;24.84;48.75;99944.50;5003239;28;20610;-57
2022/05/18 05:52:16;;;;;;;21.73;5.30;;;;;;;23.58;51.25;99940.22;4987423;28;20022;-56
2022/05/18 05:54:43;;;;;;;21.63;6.28;;;;;;;21.75;55.79;99935.56;5004216;28;20116;-56
2022/05/18 05:57:09;;;;;;;16.00;6.00;;;;;;;22.09;55.31;99939.03;5004407;28;20026;-56
2022/05/18 05:59:38;;;;;;;14.18;6.18;;;;;;;19.97;61.00;99939.59;5002290;28;20036;-56
2022/05/18 06:02:06;;;;;;;23.55;6.53;;;;;;;19.94;61.63;99937.41;4998494;28;20077;-56
2022/05/18 06:04:32;;;;;;;18.27;6.10;;;;;;;20.67;60.57;99932.81;5006542;28;20017;-56
2022/05/18 06:06:58;;;;;;;16.83;6.22;;;;;;;20.90;59.61;99940.13;5004703;28;20029;-56
2022/05/18 06:09:24;;;;;;;19.88;6.40;;;;;;;22.24;57.24;99937.97;5003785;28;20065;-56
2022/05/18 06:11:50;;;;;;;14.43;6.55;;;;;;;22.52;56.10;99944.25;5002876;28;20509;-56
2022/05/18 06:14:16;;;;;;;13.95;6.20;;;;;;;21.13;60.83;99951.25;5006015;28;20022;-56
2022/05/18 06:16:41;;;;;;;16.92;6.22;;;;;;;23.59;54.80;99954.75;5007971;28;20029;-57
2022/05/18 06:19:07;;;;;;;15.10;6.80;;;;;;;23.90;52.98;99954.78;5008141;28;20041;-56
2022/05/18 06:21:33;;;;;;;18.83;6.18;;;;;;;24.78;51.14;99956.75;5003294;28;20472;-56
2022/05/18 06:23:59;;;;;;;35.67;7.25;;;;;;;25.63;48.78;99958.25;5007262;28;20026;-56
2022/05/18 06:26:25;;;;;;;46.40;7.68;;;;;;;26.01;47.68;99964.66;5009105;28;20583;-56
2022/05/18 06:28:51;;;;;;;42.55;9.13;;;;;;;26.00;47.88;99962.22;5008246;28;20033;-57
2022/05/18 06:31:16;;;;;;;38.05;7.22;;;;;;;25.36;49.32;99971.16;5006304;28;20399;-57
2022/05/18 06:33:45;;;;;;;36.85;7.68;;;;;;;26.87;45.45;99959.88;5006975;28;20037;-56
2022/05/18 06:36:11;;;;;;;45.45;8.57;;;;;;;26.02;46.38;99966.25;4990080;28;20033;-57
2022/05/18 06:38:36;;;;;;;41.97;7.78;;;;;;;28.79;40.77;99968.97;5008427;28;20044;-57
2022/05/18 06:43:46;;;;;;;68.65;8.50;;;;;;;27.89;42.62;99963.25;5004115;28;20188;-57
2022/05/18 06:46:11;;;;;;;69.28;9.05;;;;;;;28.18;42.62;99967.78;5005838;28;20129;-57
2022/05/18 06:48:40;;;;;;;64.20;8.57;;;;;;;29.40;39.91;99966.03;5008092;28;20121;-57
2022/05/18 06:51:06;;;;;;;73.22;9.57;;;;;;;29.06;40.86;99959.16;5004458;28;20802;-57
2022/05/18 06:53:32;;;;;;;78.25;8.77;;;;;;;29.28;40.09;99955.06;5008172;28;20413;-57
2022/05/18 06:55:57;;;;;;;62.75;8.90;;;;;;;28.39;42.03;99959.41;5007356;28;20020;-57
2022/05/18 06:58:23;;;;;;;82.32;8.75;;;;;;;28.20;43.51;99956.41;5008169;28;20121;-57
2022/05/18 07:00:48;;;;;;;85.82;8.88;;;;;;;28.46;43.31;99964.38;5006755;28;20065;-56
2022/05/18 07:03:15;;;;;;;85.78;10.82;;;;;;;28.53;43.38;99956.34;5006418;28;20041;-57
2022/05/18 07:05:40;;;;;;;90.20;10.07;;;;;;;28.17;43.96;99951.59;5008587;28;20029;-57
2022/05/18 07:08:07;;;;;;;93.68;10.15;;;;;;;29.09;42.28;99952.13;5008329;28;20030;-57
2022/05/18 07:10:32;;;;;;;49.38;8.25;;;;;;;29.60;40.47;99960.66;5007680;28;20063;-57
2022/05/18 07:12:58;;;;;;;39.58;6.80;;;;;;;29.68;39.32;99951.47;5006061;28;20330;-57
2022/05/18 07:15:23;;;;;;;28.92;6.47;;;;;;;28.79;41.50;99955.16;5004838;28;20050;-57
2022/05/18 07:17:49;;;;;;;19.33;5.90;;;;;;;28.53;41.85;99952.75;5007299;28;20445;-57
2022/05/18 07:20:15;;;;;;;15.20;5.00;;;;;;;30.23;39.67;99944.19;4995000;28;20023;-57
2022/05/18 07:22:40;;;;;;;11.38;4.82;;;;;;;30.55;39.50;99944.16;4999737;28;20042;-57
2022/05/18 07:25:06;;;;;;;12.85;4.72;;;;;;;30.14;39.24;99934.47;5003215;28;20117;-57
2022/05/18 07:27:32;;;;;;;28.23;5.40;;;;;;;31.25;38.40;99948.91;5006692;28;20358;-57
2022/05/18 07:29:57;;;;;;;33.20;6.30;;;;;;;30.89;38.84;99947.34;5006532;28;20061;-57
2022/05/18 07:32:23;;;;;;;29.85;5.82;;;;;;;30.41;40.05;99943.84;5007727;28;20037;-57
2022/05/18 07:34:49;;;;;;;29.52;6.07;;;;;;;29.20;42.08;99947.72;4989888;28;20038;-57
2022/05/18 07:37:15;;;;;;;18.65;5.40;;;;;;;29.62;41.03;99941.78;5005372;28;20319;-57
2022/05/18 07:39:41;;;;;;;47.20;6.95;;;;;;;28.61;44.12;99946.34;4998452;28;20061;-57
2022/05/18 07:42:07;;;;;;;37.90;6.75;;;;;;;30.04;41.63;99946.88;5004038;28;20375;-57
2022/05/18 07:44:33;;;;;;;34.60;6.50;;;;;;;32.08;37.42;99951.28;4988798;28;20079;-57
2022/05/18 07:46:58;;;;;;;40.45;6.53;;;;;;;31.25;38.48;99953.63;5005487;28;20458;-57
2022/05/18 07:49:24;;;;;;;26.88;6.07;;;;;;;32.19;37.22;99952.25;4983099;28;20042;-57
2022/05/18 07:51:50;;;;;;;30.25;6.32;;;;;;;29.95;40.96;99960.03;5004498;28;20549;-57
2022/05/18 07:54:15;;;;;;;31.92;6.25;;;;;;;26.24;48.44;99951.47;5005188;28;20022;-57
2022/05/18 07:56:41;;;;;;;28.73;6.30;;;;;;;26.01;49.94;99956.41;5005106;28;20087;-56
2022/05/18 07:59:07;;;;;;;22.60;6.18;;;;;;;26.82;48.75;99954.56;4988726;28;20494;-57
2022/05/18 08:01:34;;;;;;;22.95;5.57;;;;;;;27.89;46.19;99955.00;5004943;28;20061;-57
2022/05/18 08:04:00;;;;;;;29.38;5.85;;;;;;;29.14;43.52;99957.41;5006209;28;20383;-56
2022/05/18 08:06:26;;;;;;;42.10;6.32;;;;;;;30.28;41.78;99951.44;5002136;28;20029;-56
2022/05/18 08:08:53;;;;;;;24.35;5.70;;;;;;;30.06;42.10;99952.84;5004154;28;20050;-56
2022/05/18 08:16:48;;;;;;;28.75;6.30;;;;;;;29.34;42.59;99958.38;5002339;28;20040;-57
2022/05/18 08:19:15;;;;;;;22.75;5.60;;;;;;;29.30;42.41;99957.47;5005035;28;20100;-56
2022/05/18 08:21:40;;;;;;;22.05;5.63;;;;;;;26.02;48.44;99958.00;4979409;28;20033;-58
2022/05/18 08:24:06;;;;;;;27.27;6.00;;;;;;;27.99;46.72;99962.00;5004747;28;20022;-58
2022/05/18 08:26:32;;;;;;;30.70;6.30;;;;;;;29.57;42.54;99955.84;5005406;28;20626;-57
2022/05/18 08:28:58;;;;;;;27.50;5.53;;;;;;;30.70;40.55;99956.38;5006502;28;20033;-55
2022/05/18 08:31:24;;;;;;;26.13;6.30;;;;;;;28.86;43.04;99960.91;5006160;28;20040;-57
2022/05/18 08:33:50;;;;;;;19.52;5.38;;;;;;;28.69;42.94;99966.66;5005682;28;20468;-55
2022/05/18 08:36:17;;;;;;;18.83;5.35;;;;;;;29.10;43.31;99962.00;4976757;28;20066;-58
2022/05/18 08:38:43;;;;;;;22.20;5.10;;;;;;;29.57;41.26;99958.63;5004119;28;20034;-56
2022/05/18 08:41:29;;;;;;;17.08;4.57;;;;;;;29.54;42.27;99956.56;5001750;28;20045;-55
2022/05/18 08:43:57;;;;;;;15.70;5.47;;;;;;;30.00;41.59;99957.81;5004822;28;20148;-55
2022/05/18 08:46:48;;;;;;;13.52;5.10;;;;;;;30.94;39.56;99956.16;5005704;28;20396;-56
2022/05/18 08:49:36;;;;;;;22.35;4.63;;;;;;;30.90;39.23;99943.41;4985594;28;20030;-55
2022/05/18 08:52:30;;;;;;;27.02;5.75;;;;;;;29.87;41.56;99945.25;4973739;28;20038;-56
2022/05/18 08:55:23;;;;;;;39.83;5.57;;;;;;;30.42;41.29;99940.72;5004826;28;20033;-61
2022/05/18 08:57:49;;;;;;;28.75;5.20;;;;;;;31.67;38.63;99952.88;5003029;28;20294;-56
2022/05/18 09:00:19;;;;;;;10.38;3.53;;;;;;;27.85;41.86;99953.25;4987682;28;20049;-56
2022/05/18 09:02:45;;;;;;;10.48;3.55;;;;;;;29.45;39.94;99942.91;4983432;28;20246;-55
2022/05/18 09:05:17;;;;;;;7.82;3.17;;;;;;;28.88;40.15;99947.56;4987306;28;20485;-56
2022/05/18 09:07:45;;;;;;;8.35;3.50;;;;;;;26.88;43.96;99946.94;4982474;28;20080;-55
2022/05/18 09:10:47;;;;;;;6.03;3.55;;;;;;;28.43;41.56;99940.25;4958558;28;20077;-55
2022/05/18 09:13:13;;;;;;;8.32;3.13;;;;;;;30.31;38.23;99937.69;4974835;28;20049;-55
2022/05/18 09:15:57;;;;;;;8.98;3.33;;;;;;;30.37;37.53;99942.97;5005273;28;20084;-56
2022/05/18 09:18:29;;;;;;;7.32;3.42;;;;;;;28.57;40.65;99943.47;5004037;28;20169;-55
2022/05/18 09:21:13;;;;;;;7.05;3.08;;;;;;;29.22;40.64;99940.69;5004180;28;20381;-55
2022/05/18 09:23:49;;;;;;;6.07;3.33;;;;;;;27.08;44.39;99945.31;5003882;28;20033;-55
2022/05/18 09:26:38;;;;;;;10.85;3.40;;;;;;;28.65;40.85;99943.69;4985890;28;20108;-55
2022/05/18 09:29:15;;;;;;;5.20;3.63;;;;;;;28.85;41.27;99930.91;4983205;28;20084;-55
2022/05/18 09:32:02;;;;;;;7.72;3.30;;;;;;;29.97;38.12;99941.16;4981758;28;20077;-56
2022/05/18 09:34:52;;;;;;;4.50;2.85;;;;;;;31.27;36.67;99941.00;5005419;28;20038;-55
2022/05/18 09:37:30;;;;;;;6.65;2.80;;;;;;;32.05;34.80;99940.91;4992024;28;20109;-56
2022/05/18 09:40:23;;;;;;;7.90;2.97;;;;;;;27.70;41.21;99938.16;4999689;28;20042;-55
2022/05/18 09:43:00;;;;;;;6.85;3.45;;;;;;;27.85;42.29;99940.28;5003817;28;20038;-56
2022/05/18 09:45:29;;;;;;;4.65;2.95;;;;;;;28.64;40.60;99944.84;5005160;28;20030;-55
2022/05/18 09:48:03;;;;;;;7.45;3.00;;;;;;;28.46;40.29;99930.50;4987438;28;20125;-55
2022/05/18 09:50:29;;;;;;;6.30;3.17;;;;;;;28.67;40.96;99933.13;4994242;28;20030;-56
2022/05/18 09:52:54;;;;;;;6.47;3.35;;;;;;;27.35;42.42;99924.72;5003455;28;20036;-56
2022/05/18 09:55:25;;;;;;;6.05;3.10;;;;;;;28.48;41.05;99931.78;5004190;28;20022;-55
2022/05/18 09:57:59;;;;;;;8.90;3.20;;;;;;;27.15;41.58;99922.78;4984274;28;20034;-55
2022/05/18 10:00:28;;;;;;;6.15;2.88;;;;;;;29.49;39.75;99920.94;5007584;28;20526;-55
2022/05/18 10:08:30;;;;;;;8.00;3.03;;;;;;;29.37;39.75;99914.28;4980769;28;20603;-55
2022/05/18 10:10:59;;;;;;;7.05;2.90;;;;;;;27.74;38.27;99923.38;4990598;28;20443;-55
2022/05/18 10:13:31;;;;;;;5.88;2.97;;;;;;;28.60;37.92;99911.63;4991379;28;20029;-55
2022/05/18 10:16:03;;;;;;;6.30;2.78;;;;;;;28.17;37.20;99918.53;4974320;28;20049;-57
2022/05/18 10:18:40;;;;;;;7.28;2.95;;;;;;;27.91;37.48;99913.34;5004897;28;20080;-56
2022/05/18 10:21:26;;;;;;;6.60;3.20;;;;;;;28.73;37.65;99901.38;4989549;28;20431;-56
2022/05/18 10:23:55;;;;;;;6.95;2.70;;;;;;;30.17;35.72;99904.16;5008182;28;20030;-55
2022/05/18 10:26:27;;;;;;;6.82;2.78;;;;;;;28.74;37.10;99897.47;5006578;28;20038;-55
2022/05/18 10:29:13;;;;;;;5.68;2.75;;;;;;;29.91;35.15;99893.66;5006402;28;20417;-55
2022/05/18 10:32:01;;;;;;;4.60;2.42;;;;;;;27.88;36.96;99906.56;4984998;28;20050;-56
2022/05/18 10:34:31;;;;;;;5.78;2.78;;;;;;;29.30;34.43;99897.53;5005405;28;20062;-56
2022/05/18 10:36:58;;;;;;;5.57;2.72;;;;;;;29.48;34.04;99897.22;5007288;28;20037;-55
2022/05/18 10:39:40;;;;;;;5.85;2.65;;;;;;;31.16;32.71;99901.25;5007063;28;20041;-55
2022/05/18 10:42:25;;;;;;;6.13;2.42;;;;;;;27.65;35.61;99903.38;5006676;28;20022;-56
2022/05/18 10:44:52;;;;;;;6.32;2.20;;;;;;;29.11;34.09;99894.66;5006101;28;20157;-56
2022/05/18 10:47:38;;;;;;;5.63;2.63;;;;;;;29.20;35.38;99892.53;4969993;28;20034;-55
2022/05/18 10:50:21;;;;;;;3.85;2.47;;;;;;;29.17;35.02;99894.03;5006408;28;20069;-55
2022/05/18 10:52:47;;;;;;;5.88;2.40;;;;;;;30.13;33.85;99878.41;5007757;28;20026;-56
2022/05/18 10:55:15;;;;;;;5.00;2.38;;;;;;;29.82;34.25;99885.53;5005531;28;20379;-55
2022/05/18 10:57:47;;;;;;;5.63;2.80;;;;;;;28.43;36.30;99871.31;5007075;28;20070;-55
2022/05/18 11:00:21;;;;;;;5.28;2.80;;;;;;;27.45;37.78;99871.22;4967167;28;20034;-57
2022/05/18 11:03:08;;;;;;;7.00;2.90;;;;;;;29.07;35.13;99868.91;4987500;28;20026;-57
2022/05/18 11:05:44;;;;;;;6.30;2.80;;;;;;;28.40;36.84;99867.28;5004242;28;20025;-57
2022/05/18 11:08:14;;;;;;;4.53;2.42;;;;;;;27.43;37.66;99868.00;4989559;28;20117;-57
2022/05/18 11:10:48;;;;;;;4.75;2.40;;;;;;;27.90;37.16;99856.63;5007879;28;20022;-57
2022/05/18 11:13:39;;;;;;;6.40;2.50;;;;;;;28.76;35.11;99859.34;5007267;28;20030;-55
2022/05/18 11:16:14;;;;;;;5.15;2.40;;;;;;;28.27;36.12;99848.34;5005609;28;20022;-56
2022/05/18 11:18:59;;;;;;;5.53;2.70;;;;;;;28.19;35.89;99855.59;5007308;28;20033;-55
2022/05/18 11:21:47;;;;;;;4.90;2.30;;;;;;;28.25;35.40;99847.91;4987864;28;20037;-55
2022/05/18 11:24:31;;;;;;;5.28;2.50;;;;;;;29.08;33.83;99848.41;5006552;28;20338;-55
2022/05/18 11:26:59;;;;;;;7.18;2.45;;;;;;;28.11;35.20;99854.56;5007466;28;20034;-55
2022/05/18 11:29:40;;;;;;;5.43;2.58;;;;;;;29.22;33.28;99837.78;5007013;28;20029;-55
2022/05/18 11:32:12;;;;;;;5.22;2.60;;;;;;;28.79;34.48;99842.06;5006022;28;20089;-54
2022/05/18 11:35:01;;;;;;;4.80;2.50;;;;;;;29.85;34.17;99837.03;4983247;28;20033;-56
2022/05/18 11:37:45;;;;;;;4.15;2.42;;;;;;;28.40;34.61;99849.94;4992069;28;20088;-55
2022/05/18 11:40:17;;;;;;;6.38;2.67;;;;;;;28.42;34.43;99846.84;5001130;28;20042;-57
2022/05/18 11:42:52;;;;;;;7.40;2.45;;;;;;;28.49;34.77;99842.38;4985947;28;20121;-55
2022/05/18 11:45:37;;;;;;;5.82;2.35;;;;;;;29.48;33.67;99837.28;5007338;28;20033;-55
2022/05/18 11:48:29;;;;;;;6.88;2.60;;;;;;;29.43;33.61;99841.13;4983608;28;20041;-54
2022/05/18 11:51:17;;;;;;;6.75;2.70;;;;;;;29.36;35.26;99845.66;5000896;28;20491;-56
2022/05/18 11:53:56;;;;;;;5.75;2.25;;;;;;;30.34;33.18;99839.41;5005590;28;20026;-55
2022/05/18 11:56:33;;;;;;;5.00;2.30;;;;;;;28.24;35.48;99840.78;4946661;28;20499;-57